ADDS METAR Data INFO
IDs: Format: Raw Decoded Include TAF

Data at: 2146 UTC 15 Dec 2017

KCDD 152130Z AUTO 00000KT 10SM BKN080 M13/M17 A2977 RMK AO2
KCDD 152110Z AUTO 00000KT 10SM BKN090 M13/M17 A2977 RMK AO2
KCDD 152051Z AUTO 00000KT 10SM SCT023 BKN090 M13/M17 A2978 RMK AO2
KCDD 152031Z AUTO 00000KT 10SM BKN021 BKN090 M13/M17 A2979 RMK AO2
KCDD 152010Z AUTO 00000KT 10SM SCT021 BKN090 M13/M17 A2978 RMK AO2
KCDD 151951Z AUTO 00000KT 10SM BKN021 OVC090 M13/M17 A2979 RMK AO2
KCDD 151931Z AUTO 00000KT 10SM BKN021 M13/M17 A2979 RMK AO2
KCDD 151911Z AUTO 00000KT 10SM SCT019 M13/M17 A2980 RMK AO2
KCDD 151850Z AUTO 00000KT 10SM OVC019 M13/M17 A2980 RMK AO2
KCDD 151831Z AUTO 21004KT 10SM OVC019 M13/M17 A2981 RMK AO2
KCDD 151811Z AUTO 00000KT 10SM OVC021 M14/M17 A2982 RMK AO2
KCDD 151750Z AUTO 24004KT 10SM OVC021 M14/M17 A2983 RMK AO2
KCDD 151730Z AUTO 19005KT 10SM OVC019 M14/M17 A2983 RMK AO2
KCDD 151711Z AUTO 22005KT 10SM OVC019 M14/M17 A2984 RMK AO2
KCDD 151650Z AUTO 35003KT 10SM OVC019 M14/M17 A2984 RMK AO2
KCDD 151631Z AUTO 00000KT 10SM OVC019 M14/M17 A2985 RMK AO2
KCDD 151611Z AUTO 31004KT 10SM OVC019 M14/M17 A2985 RMK AO2
KCDD 151551Z AUTO 00000KT 10SM OVC019 M14/M17 A2984 RMK AO2
KCDD 151531Z AUTO 32003KT 10SM OVC019 M14/M17 A2985 RMK AO2
KCDD 151511Z AUTO 00000KT 10SM OVC019 M14/M17 A2985 RMK AO2
KCDD 151450Z AUTO 33003KT 10SM OVC019 M14/M17 A2985 RMK AO2
KCDD 151430Z AUTO 34003KT 10SM OVC019 M14/M17 A2985 RMK AO2
KCDD 151411Z AUTO 36003KT 10SM OVC019 M14/M17 A2985 RMK AO2
KCDD 151351Z AUTO 00000KT 10SM OVC019 M14/M17 A2985 RMK AO2
KCDD 151331Z AUTO 33003KT 10SM OVC021 M14/M17 A2985 RMK AO2
KCDD 151311Z AUTO 27003KT 10SM OVC021 M13/M17 A2985 RMK AO2
KCDD 151250Z AUTO 00000KT 10SM OVC023 M13/M17 A2985 RMK AO2
KCDD 151230Z AUTO 00000KT 10SM OVC023 M13/M16 A2986 RMK AO2
KCDD 151210Z AUTO 33005KT 10SM OVC023 M13/M16 A2987 RMK AO2
KCDD 151150Z AUTO 00000KT 10SM OVC023 M13/M16 A2987 RMK AO2
KCDD 151131Z AUTO 33003KT 10SM OVC023 M13/M16 A2987 RMK AO2
KCDD 151110Z AUTO 00000KT 7SM -SN OVC025 M13/M15 A2987 RMK AO2
KCDD 151050Z AUTO 32003KT 4SM -SN OVC025 M13/M15 A2987 RMK AO2
KCDD 151031Z AUTO 31003KT 3SM -SN SCT018 OVC027 M13/M15 A2988 RMK AO2
KCDD 151010Z AUTO 00000KT 7SM -SN BKN018 OVC027 M13/M15 A2988 RMK AO2
KCDD 150951Z AUTO 32003KT 5SM -SN OVC018 M13/M15 A2988 RMK AO2
KCDD 150930Z AUTO 32003KT 3SM -SN OVC018 M13/M14 A2988 RMK AO2
KCDD 150910Z AUTO 33003KT 1SM -SN OVC018 M13/M14 A2988 RMK AO2
KCDD 150850Z AUTO 32004KT 2 1/2SM -SN OVC018 M13/M14 A2988 RMK AO2
KCDD 150830Z AUTO 31003KT 4SM -SN OVC018 M13/M14 A2989 RMK AO2
KCDD 150810Z AUTO 00000KT 2 1/2SM -SN OVC018 M13/M14 A2988 RMK AO2
KCDD 150751Z AUTO 00000KT 3SM -SN OVC018 M13/M14 A2987 RMK AO2
KCDD 150731Z AUTO 31004KT 3SM -SN BKN018 OVC050 M13/M14 A2987 RMK AO2
KCDD 150711Z AUTO 31004KT 4SM -SN SCT018 SCT034 OVC050 M13/M14 A2987 RMK AO2
KCDD 150650Z AUTO 27004KT 3SM -SN BKN020 BKN032 OVC041 M13/M14 A2988 RMK AO2
KCDD 150630Z AUTO 00000KT 2SM -SN OVC018 M12/M14 A2988 RMK AO2
KCDD 150610Z AUTO 31003KT 1 3/4SM -SN OVC018 M12/M14 A2989 RMK AO2
KCDD 150551Z AUTO 00000KT 1 3/4SM -SN SCT016 OVC036 M12/M14 A2989 RMK AO2
KCDD 150531Z AUTO 29005KT 5SM -SN BKN038 OVC065 M12/M14 A2990 RMK AO2
KCDD 150510Z AUTO 00000KT 5SM -SN BKN038 OVC070 M12/M14 A2990 RMK AO2
KCDD 150451Z AUTO 00000KT 2 1/2SM -SN OVC070 M12/M14 A2990 RMK AO2
KCDD 150431Z AUTO 00000KT 4SM -SN OVC070 M13/M14 A2990 RMK AO2
KCDD 150410Z AUTO 00000KT 4SM -SN OVC070 M13/M14 A2990 RMK AO2
KCDD 150351Z AUTO 00000KT 4SM -SN OVC080 M13/M14 A2991 RMK AO2
KCDD 150331Z AUTO 00000KT 1 1/2SM -SN SCT023 BKN040 OVC080 M13/M14 A2991 RMK AO2
KCDD 150311Z AUTO 00000KT 1 3/4SM -SN BKN027 OVC040 M13/M14 A2992 RMK AO2
KCDD 150251Z AUTO 00000KT 1 1/4SM -SN SCT023 BKN029 OVC040 M12/M14 A2992 RMK AO2
KCDD 150230Z AUTO 26003KT 1 1/2SM -SN BKN031 BKN037 OVC044 M12/M14 A2993 RMK AO2
KCDD 150210Z AUTO 28003KT 1 3/4SM -SN SCT022 BKN032 OVC040 M12/M14 A2993 RMK AO2
KCDD 150151Z AUTO 29003KT 1SM -SN OVC022 M12/M14 A2994 RMK AO2
KCDD 150131Z AUTO 27003KT 1 1/4SM -SN BKN027 OVC032 M12/M14 A2994 RMK AO2
KCDD 150111Z AUTO 28004KT 1 1/2SM -SN OVC027 M12/M14 A2994 RMK AO2
KCDD 150051Z AUTO 30003KT 1 3/4SM -SN BKN016 OVC025 M12/M14 A2994 RMK AO2
KCDD 150031Z AUTO 27006KT 1 1/4SM -SN BKN015 OVC024 M12/M14 A2994 RMK AO2
KCDD 150012Z AUTO 27005KT 3SM -SN SCT022 BKN036 OVC045 M11/M13 A2994 RMK AO2
KCDD 142350Z AUTO 26003KT 4SM -SN BKN045 OVC070 M11/M13 A2994 RMK AO2
KCDD 142330Z AUTO 00000KT 4SM -SN SCT020 OVC045 M11/M13 A2994 RMK AO2
KCDD 142311Z AUTO 00000KT 2 1/2SM -SN BKN018 OVC045 M11/M13 A2994 RMK AO2
KCDD 142251Z AUTO 00000KT 1 3/4SM -SN OVC020 M11/M13 A2994 RMK AO2
KCDD 142230Z AUTO 28003KT 7SM -SN OVC022 M11/M13 A2995 RMK AO2
KCDD 142210Z AUTO 28003KT 5SM -SN OVC022 M11/M13 A2995 RMK AO2
KCDD 142150Z AUTO 28003KT 10SM -SN OVC022 M10/M13 A2995 RMK AO2
KCDD 142130Z AUTO 26003KT 7SM -SN OVC020 M10/M13 A2995 RMK AO2
KCDD 142111Z AUTO 25003KT 4SM -SN OVC020 M10/M13 A2995 RMK AO2
KCDD 142051Z AUTO 26006KT 7SM -SN OVC020 M10/M13 A2995 RMK AO2
KCDD 142031Z AUTO 28004KT 4SM -SN OVC020 M10/M13 A2994 RMK AO2
KCDD 142010Z AUTO 26004KT 10SM -SN OVC018 M10/M13 A2994 RMK AO2
KCDD 141951Z AUTO 27004KT 5SM -SN OVC018 M10/M13 A2995 RMK AO2
KCDD 141932Z AUTO 23005KT 10SM -SN OVC018 M10/M13 A2995 RMK AO2
KCDD 141911Z AUTO 26005KT 5SM -SN OVC018 M10/M13 A2995 RMK AO2
KCDD 141850Z AUTO 33003KT 7SM -SN OVC018 M10/M13 A2995 RMK AO2
KCDD 141831Z AUTO 32003KT 5SM -SN OVC018 M10/M13 A2995 RMK AO2
KCDD 141812Z AUTO 26003KT 5SM -SN OVC018 M10/M13 A2996 RMK AO2
KCDD 141750Z AUTO 27003KT 7SM -SN OVC018 M10/M13 A2997 RMK AO2
KCDD 141731Z AUTO 00000KT 10SM -SN SCT018 OVC031 M10/M13 A2997 RMK AO2
KCDD 141711Z AUTO 32004KT 10SM SCT018 BKN031 M10/M13 A2997 RMK AO2
KCDD 141650Z AUTO 00000KT 10SM SCT018 M10/M13 A2998 RMK AO2
KCDD 141631Z AUTO 28003KT 10SM CLR M11/M13 A2998 RMK AO2
KCDD 141611Z AUTO 00000KT 10SM BKN023 M11/M13 A2998 RMK AO2
KCDD 141551Z AUTO 00000KT 10SM BKN023 OVC033 M11/M13 A2998 RMK AO2
KCDD 141530Z AUTO 00000KT 7SM -SN SCT027 OVC033 M12/M13 A2998 RMK AO2
KCDD 141510Z AUTO 00000KT 2 1/2SM -SN SCT020 OVC027 M12/M13 A2998 RMK AO2
KCDD 141450Z AUTO 00000KT 4SM -SN BKN023 BKN029 OVC034 M12/M13 A2998 RMK AO2
KCDD 141430Z AUTO 00000KT 1SM -SN BKN025 OVC032 M12/M13 A2997 RMK AO2
KCDD 141411Z AUTO 00000KT 2 1/2SM -SN SCT024 BKN030 OVC048 M12/M13 A2997 RMK AO2
KCDD 141350Z AUTO 00000KT 2SM -SN SCT017 BKN024 OVC036 M11/M13 A2997 RMK AO2
KCDD 141330Z AUTO 00000KT 2SM -SN BKN017 OVC023 M11/M12 A2997 RMK AO2
KCDD 141311Z AUTO 00000KT 3SM -SN SCT019 BKN034 OVC050 M11/M12 A2996 RMK AO2
KCDD 141251Z AUTO 00000KT 2 1/2SM -SN SCT018 OVC025 M11/M12 A2997 RMK AO2
KCDD 141230Z AUTO 00000KT 1 1/4SM -SN BKN009 OVC014 M11/M12 A2996 RMK AO2
KCDD 141211Z AUTO 00000KT 2 1/2SM -SN BKN009 OVC012 M11/M12 A2996 RMK AO2
KCDD 141150Z AUTO 00000KT 10SM OVC009 M11/M12 A2995 RMK AO2
KCDD 141131Z AUTO 25004KT 10SM -SN OVC009 M11/M12 A2995 RMK AO2
KCDD 141111Z AUTO 00000KT 10SM OVC009 M11/M12 A2994 RMK AO2
KCDD 141051Z AUTO 00000KT 10SM -SN OVC009 M11/M12 A2995 RMK AO2
KCDD 141031Z AUTO 00000KT 10SM OVC009 M11/M12 A2995 RMK AO2
KCDD 141011Z AUTO 00000KT 10SM OVC009 M11/M12 A2994 RMK AO2
KCDD 140951Z AUTO 27004KT 10SM -SN OVC009 M11/M12 A2994 RMK AO2